createdAt,value
2022-07-25T00:01:57.064Z,2.03
2022-07-25T00:04:25.724Z,2.72
2022-07-25T00:06:53.363Z,2.30
2022-07-25T00:09:20.820Z,3.35
2022-07-25T00:11:48.365Z,2.88
2022-07-25T00:14:15.886Z,2.92
2022-07-25T00:16:43.371Z,3.05
2022-07-25T00:19:11.809Z,3.33
2022-07-25T00:21:39.307Z,2.85
2022-07-25T00:24:07.355Z,3.97
2022-07-25T00:26:39.762Z,3.03
2022-07-25T00:29:07.876Z,3.65
2022-07-25T00:31:35.471Z,3.20
2022-07-25T00:34:04.153Z,4.25
2022-07-25T00:36:31.867Z,3.03
2022-07-25T00:38:59.377Z,3.72
2022-07-25T00:41:27.045Z,4.85
2022-07-25T00:43:54.605Z,3.67
2022-07-25T00:46:22.203Z,4.95
2022-07-25T00:48:51.521Z,4.82
2022-07-25T00:51:19.461Z,4.57
2022-07-25T00:53:47.093Z,4.20
2022-07-25T00:56:14.693Z,4.35
2022-07-25T00:58:42.178Z,4.32
2022-07-25T01:01:09.737Z,4.22
2022-07-25T01:03:37.317Z,3.78
2022-07-25T01:06:04.998Z,4.40
2022-07-25T01:08:33.418Z,4.22
2022-07-25T01:11:00.929Z,3.60
2022-07-25T01:13:28.409Z,3.38
2022-07-25T01:15:55.977Z,2.95
2022-07-25T01:18:23.470Z,3.05
2022-07-25T01:20:51.052Z,4.10
2022-07-25T01:23:18.603Z,3.80
2022-07-25T01:25:46.088Z,2.83
2022-07-25T01:28:13.679Z,4.53
2022-07-25T01:30:41.387Z,3.45
2022-07-25T01:33:08.923Z,3.15
2022-07-25T01:35:41.517Z,4.13
2022-07-25T01:38:10.955Z,3.22
2022-07-25T01:40:38.460Z,3.78
2022-07-25T01:43:06.339Z,3.65
2022-07-25T01:45:34.558Z,3.30
2022-07-25T01:48:02.065Z,3.78
2022-07-25T01:50:29.637Z,3.92
2022-07-25T01:52:57.528Z,3.72
2022-07-25T01:55:25.078Z,3.53
2022-07-25T01:57:53.975Z,3.50
2022-07-25T02:00:21.442Z,4.20
2022-07-25T02:02:49.052Z,3.55
2022-07-25T02:05:16.930Z,5.00
2022-07-25T02:07:44.450Z,3.10
2022-07-25T02:10:12.071Z,3.78
2022-07-25T02:12:39.598Z,3.75
2022-07-25T02:15:07.783Z,5.10
2022-07-25T02:17:35.272Z,3.97
2022-07-25T02:20:02.854Z,4.10
2022-07-25T02:22:30.354Z,4.22
2022-07-25T02:24:57.829Z,4.60
2022-07-25T02:27:25.321Z,3.78
2022-07-25T02:29:52.821Z,4.18
2022-07-25T02:32:20.317Z,4.22
2022-07-25T02:34:47.817Z,4.85
2022-07-25T02:37:15.365Z,3.72
2022-07-25T02:39:42.892Z,3.42
2022-07-25T02:42:10.450Z,3.80
2022-07-25T02:44:37.946Z,3.92
2022-07-25T02:47:05.451Z,4.38
2022-07-25T02:49:32.956Z,4.38
2022-07-25T02:52:00.394Z,5.72
2022-07-25T02:54:27.876Z,5.10
2022-07-25T02:56:55.603Z,5.47
2022-07-25T02:59:23.103Z,5.15
2022-07-25T03:01:50.760Z,5.25
2022-07-25T03:04:18.431Z,4.68
2022-07-25T03:06:47.454Z,4.78
2022-07-25T03:09:14.981Z,5.38
2022-07-25T03:11:42.503Z,5.57
2022-07-25T03:14:10.385Z,5.82
2022-07-25T03:16:38.165Z,4.82
2022-07-25T03:19:10.266Z,5.45
2022-07-25T03:21:40.279Z,4.97
2022-07-25T03:24:08.242Z,6.22
2022-07-25T03:26:36.060Z,5.72
2022-07-25T03:29:04.194Z,5.53
2022-07-25T03:31:31.712Z,5.78
2022-07-25T03:33:59.182Z,5.97
2022-07-25T03:36:26.679Z,6.78
2022-07-25T03:38:55.830Z,6.30
2022-07-25T03:41:23.542Z,5.72
2022-07-25T03:43:54.767Z,7.40
2022-07-25T03:46:22.319Z,6.70
2022-07-25T03:48:49.884Z,5.72
2022-07-25T03:51:17.484Z,6.88
2022-07-25T03:54:03.635Z,6.35
2022-07-25T03:56:43.247Z,5.90
2022-07-25T03:59:12.931Z,6.72
2022-07-25T04:01:40.715Z,6.72
2022-07-25T04:04:08.881Z,6.25
2022-07-25T04:06:37.027Z,7.28
2022-07-25T04:09:05.069Z,7.18
2022-07-25T04:11:32.771Z,6.88
2022-07-25T04:14:00.274Z,7.13
2022-07-25T04:16:28.103Z,7.15
2022-07-25T04:18:57.298Z,6.60
2022-07-25T04:21:25.887Z,8.02
2022-07-25T04:23:54.219Z,6.82
2022-07-25T04:26:21.730Z,6.93
2022-07-25T04:28:49.622Z,7.15
2022-07-25T04:31:17.609Z,6.88
2022-07-25T04:33:45.275Z,6.53
2022-07-25T04:36:13.319Z,7.57
2022-07-25T04:38:41.091Z,6.35
2022-07-25T04:41:08.671Z,7.53
2022-07-25T04:43:36.175Z,6.72
2022-07-25T04:46:04.071Z,6.45
2022-07-25T04:48:31.634Z,6.63
2022-07-25T04:50:59.221Z,6.40
2022-07-25T04:53:26.720Z,6.03
2022-07-25T04:55:54.245Z,5.18
2022-07-25T04:58:21.715Z,5.43
2022-07-25T05:00:49.374Z,5.30
2022-07-25T05:03:17.026Z,7.10
2022-07-25T05:05:44.555Z,6.25
2022-07-25T05:08:12.119Z,6.60
2022-07-25T05:10:39.699Z,6.38
2022-07-25T05:13:07.271Z,7.53
2022-07-25T05:15:34.826Z,7.38
2022-07-25T05:18:02.315Z,8.13
2022-07-25T05:20:30.214Z,8.93
2022-07-25T05:22:57.801Z,8.60
2022-07-25T05:25:25.363Z,10.45
2022-07-25T05:27:57.412Z,9.52
2022-07-25T05:30:25.278Z,9.48
2022-07-25T05:32:52.780Z,7.88
2022-07-25T05:35:20.326Z,9.75
2022-07-25T05:37:48.515Z,9.82
2022-07-25T05:40:16.032Z,8.93
2022-07-25T05:42:43.568Z,8.68
2022-07-25T05:45:11.245Z,8.48
2022-07-25T05:47:38.807Z,8.02
2022-07-25T05:50:07.784Z,8.70
2022-07-25T05:52:35.278Z,8.73
2022-07-25T05:55:02.897Z,7.90
2022-07-25T05:57:30.460Z,7.05
2022-07-25T05:59:57.961Z,6.35
2022-07-25T06:02:25.648Z,6.93
2022-07-25T06:04:53.374Z,6.28
2022-07-25T06:07:20.845Z,5.38
2022-07-25T06:09:48.342Z,5.13
2022-07-25T06:12:15.860Z,3.33
2022-07-25T06:14:43.538Z,3.83
2022-07-25T06:17:11.106Z,3.17
2022-07-25T06:19:38.756Z,2.97
2022-07-25T06:22:08.086Z,2.83
2022-07-25T06:24:36.186Z,3.20
2022-07-25T06:27:03.743Z,2.20
2022-07-25T06:29:31.241Z,2.00
2022-07-25T06:31:58.795Z,1.60
2022-07-25T06:34:28.774Z,1.90
2022-07-25T06:36:57.471Z,1.60
2022-07-25T06:39:26.047Z,1.83
2022-07-25T06:41:53.639Z,1.80
2022-07-25T06:44:21.131Z,1.50
2022-07-25T06:46:48.680Z,1.40
2022-07-25T06:49:17.843Z,1.60
2022-07-25T06:51:45.340Z,1.85
2022-07-25T06:54:13.747Z,1.30
2022-07-25T06:56:41.194Z,1.35
2022-07-25T06:59:08.683Z,1.45
2022-07-25T07:01:36.444Z,1.02
2022-07-25T07:04:05.280Z,1.13
2022-07-25T07:06:32.987Z,1.10
2022-07-25T07:09:00.525Z,0.98
2022-07-25T07:11:28.518Z,0.90
2022-07-25T07:13:56.090Z,0.80
2022-07-25T07:16:23.609Z,1.23
2022-07-25T07:18:51.149Z,0.80
2022-07-25T07:21:21.346Z,1.13
2022-07-25T07:23:49.659Z,0.80
2022-07-25T07:28:48.560Z,0.70
2022-07-25T07:31:18.798Z,0.98
2022-07-25T07:33:46.760Z,0.90
2022-07-25T07:36:14.349Z,0.60
2022-07-25T07:38:41.982Z,0.75
2022-07-25T07:41:09.534Z,0.88
2022-07-25T07:43:37.329Z,0.60
2022-07-25T07:46:05.048Z,1.17
2022-07-25T07:48:33.915Z,0.68
2022-07-25T07:51:02.989Z,0.65
2022-07-25T07:53:44.733Z,0.60
